sensor_id;sensor_type;location;lat;lon;timestamp;pressure;altitude;pressure_sealevel;temperature;humidity
54978;BME280;40873;47.522;19.106;2023-05-07T00:00:38;100334.97;;;15.25;100.00
54978;BME280;40873;47.522;19.106;2023-05-07T00:03:20;100333.38;;;15.23;100.00
54978;BME280;40873;47.522;19.106;2023-05-07T00:05:48;100331.69;;;15.22;100.00
54978;BME280;40873;47.522;19.106;2023-05-07T00:08:15;100331.59;;;15.12;100.00
54978;BME280;40873;47.522;19.106;2023-05-07T00:10:44;100337.53;;;15.04;100.00
54978;BME280;40873;47.522;19.106;2023-05-07T00:13:11;100332.81;;;14.97;100.00
54978;BME280;40873;47.522;19.106;2023-05-07T00:15:38;100332.94;;;14.95;100.00
54978;BME280;40873;47.522;19.106;2023-05-07T00:18:05;100328.81;;;14.91;100.00
54978;BME280;40873;47.522;19.106;2023-05-07T00:20:35;100332.69;;;14.87;100.00
54978;BME280;40873;47.522;19.106;2023-05-07T00:23:02;100335.94;;;14.79;100.00
54978;BME280;40873;47.522;19.106;2023-05-07T00:25:29;100335.94;;;14.79;100.00
54978;BME280;40873;47.522;19.106;2023-05-07T00:27:58;100333.66;;;14.75;100.00
54978;BME280;40873;47.522;19.106;2023-05-07T00:30:30;100340.28;;;14.69;100.00
54978;BME280;40873;47.522;19.106;2023-05-07T00:32:57;100343.41;;;14.63;100.00
54978;BME280;40873;47.522;19.106;2023-05-07T00:35:24;100345.94;;;14.65;100.00
54978;BME280;40873;47.522;19.106;2023-05-07T00:37:51;100348.00;;;14.61;100.00
54978;BME280;40873;47.522;19.106;2023-05-07T00:40:19;100351.38;;;14.63;100.00
54978;BME280;40873;47.522;19.106;2023-05-07T00:42:47;100347.03;;;14.62;100.00
54978;BME280;40873;47.522;19.106;2023-05-07T00:45:16;100349.53;;;14.52;100.00
54978;BME280;40873;47.522;19.106;2023-05-07T00:47:43;100344.91;;;14.43;100.00
54978;BME280;40873;47.522;19.106;2023-05-07T00:50:12;100347.91;;;14.39;100.00
54978;BME280;40873;47.522;19.106;2023-05-07T00:52:40;100347.44;;;14.34;100.00
54978;BME280;40873;47.522;19.106;2023-05-07T00:55:09;100357.19;;;14.33;100.00
54978;BME280;40873;47.522;19.106;2023-05-07T00:57:37;100349.56;;;14.29;100.00
54978;BME280;40873;47.522;19.106;2023-05-07T01:00:07;100354.25;;;14.25;100.00
54978;BME280;40873;47.522;19.106;2023-05-07T01:02:36;100347.03;;;14.27;100.00
54978;BME280;40873;47.522;19.106;2023-05-07T01:05:04;100354.03;;;14.28;100.00
54978;BME280;40873;47.522;19.106;2023-05-07T01:07:33;100350.75;;;14.24;100.00
54978;BME280;40873;47.522;19.106;2023-05-07T01:10:02;100350.41;;;14.29;100.00
54978;BME280;40873;47.522;19.106;2023-05-07T01:12:31;100345.63;;;14.34;100.00
54978;BME280;40873;47.522;19.106;2023-05-07T01:14:59;100350.09;;;14.34;100.00
54978;BME280;40873;47.522;19.106;2023-05-07T01:17:26;100349.97;;;14.35;100.00
54978;BME280;40873;47.522;19.106;2023-05-07T01:19:53;100361.09;;;14.40;100.00
54978;BME280;40873;47.522;19.106;2023-05-07T01:22:32;100360.25;;;14.40;100.00
54978;BME280;40873;47.522;19.106;2023-05-07T01:24:59;100374.34;;;14.40;100.00
54978;BME280;40873;47.522;19.106;2023-05-07T01:27:28;100363.09;;;14.37;100.00
54978;BME280;40873;47.522;19.106;2023-05-07T01:29:55;100355.38;;;14.34;100.00
54978;BME280;40873;47.522;19.106;2023-05-07T01:32:52;100363.09;;;14.37;100.00
54978;BME280;40873;47.522;19.106;2023-05-07T01:35:24;100368.41;;;14.37;100.00
54978;BME280;40873;47.522;19.106;2023-05-07T01:37:54;100365.03;;;14.35;100.00
54978;BME280;40873;47.522;19.106;2023-05-07T01:40:25;100362.50;;;14.33;100.00
54978;BME280;40873;47.522;19.106;2023-05-07T01:42:53;100364.41;;;14.31;100.00
54978;BME280;40873;47.522;19.106;2023-05-07T01:45:24;100354.75;;;14.30;100.00
54978;BME280;40873;47.522;19.106;2023-05-07T01:47:54;100354.16;;;14.26;100.00
54978;BME280;40873;47.522;19.106;2023-05-07T01:50:22;100360.53;;;14.24;100.00
54978;BME280;40873;47.522;19.106;2023-05-07T01:52:50;100353.53;;;14.23;100.00
54978;BME280;40873;47.522;19.106;2023-05-07T01:55:17;100347.63;;;14.19;100.00
54978;BME280;40873;47.522;19.106;2023-05-07T01:57:45;100348.34;;;14.21;100.00
54978;BME280;40873;47.522;19.106;2023-05-07T02:00:15;100344.34;;;14.16;100.00
54978;BME280;40873;47.522;19.106;2023-05-07T02:02:42;100348.22;;;14.12;100.00
54978;BME280;40873;47.522;19.106;2023-05-07T02:05:09;100347.56;;;14.08;100.00
54978;BME280;40873;47.522;19.106;2023-05-07T02:07:38;100339.03;;;14.05;100.00
54978;BME280;40873;47.522;19.106;2023-05-07T02:10:05;100338.25;;;14.03;100.00
54978;BME280;40873;47.522;19.106;2023-05-07T02:12:33;100332.69;;;13.94;100.00
54978;BME280;40873;47.522;19.106;2023-05-07T02:15:00;100333.38;;;13.85;100.00
54978;BME280;40873;47.522;19.106;2023-05-07T02:17:27;100334.44;;;13.83;100.00
54978;BME280;40873;47.522;19.106;2023-05-07T02:19:54;100336.25;;;13.82;100.00
54978;BME280;40873;47.522;19.106;2023-05-07T02:22:22;100340.09;;;13.78;100.00
54978;BME280;40873;47.522;19.106;2023-05-07T02:24:49;100338.41;;;13.77;100.00
54978;BME280;40873;47.522;19.106;2023-05-07T02:27:17;100336.66;;;13.65;100.00
54978;BME280;40873;47.522;19.106;2023-05-07T02:29:43;100340.59;;;13.59;100.00
54978;BME280;40873;47.522;19.106;2023-05-07T02:32:10;100338.78;;;13.60;100.00
54978;BME280;40873;47.522;19.106;2023-05-07T02:34:38;100339.34;;;13.52;100.00
54978;BME280;40873;47.522;19.106;2023-05-07T02:37:05;100336.69;;;13.52;100.00
54978;BME280;40873;47.522;19.106;2023-05-07T02:39:32;100332.81;;;13.45;100.00
54978;BME280;40873;47.522;19.106;2023-05-07T02:42:01;100327.72;;;13.42;100.00
54978;BME280;40873;47.522;19.106;2023-05-07T02:44:28;100327.94;;;13.39;100.00
54978;BME280;40873;47.522;19.106;2023-05-07T02:47:05;100325.53;;;13.36;100.00
54978;BME280;40873;47.522;19.106;2023-05-07T02:49:34;100328.28;;;13.34;100.00
54978;BME280;40873;47.522;19.106;2023-05-07T02:52:02;100332.84;;;13.32;100.00
54978;BME280;40873;47.522;19.106;2023-05-07T02:54:32;100338.47;;;13.28;100.00
54978;BME280;40873;47.522;19.106;2023-05-07T02:56:59;100329.06;;;13.24;100.00
54978;BME280;40873;47.522;19.106;2023-05-07T02:59:27;100342.41;;;13.22;100.00
54978;BME280;40873;47.522;19.106;2023-05-07T03:01:57;100341.13;;;13.15;100.00
54978;BME280;40873;47.522;19.106;2023-05-07T03:04:24;100344.50;;;13.17;100.00
54978;BME280;40873;47.522;19.106;2023-05-07T03:06:51;100342.81;;;13.16;100.00
54978;BME280;40873;47.522;19.106;2023-05-07T03:09:18;100337.94;;;13.10;100.00
54978;BME280;40873;47.522;19.106;2023-05-07T03:11:46;100340.38;;;13.13;100.00
54978;BME280;40873;47.522;19.106;2023-05-07T03:14:16;100336.16;;;13.10;100.00
54978;BME280;40873;47.522;19.106;2023-05-07T03:16:44;100337.53;;;13.03;100.00
54978;BME280;40873;47.522;19.106;2023-05-07T03:19:15;100336.75;;;13.14;100.00
54978;BME280;40873;47.522;19.106;2023-05-07T03:21:45;100342.94;;;13.14;100.00
54978;BME280;40873;47.522;19.106;2023-05-07T03:24:12;100341.00;;;13.16;100.00
54978;BME280;40873;47.522;19.106;2023-05-07T03:26:40;100346.06;;;13.20;100.00
54978;BME280;40873;47.522;19.106;2023-05-07T03:29:06;100342.81;;;13.16;100.00
54978;BME280;40873;47.522;19.106;2023-05-07T03:31:34;100350.53;;;13.19;100.00
54978;BME280;40873;47.522;19.106;2023-05-07T03:34:00;100348.56;;;13.23;100.00
54978;BME280;40873;47.522;19.106;2023-05-07T03:36:28;100337.84;;;13.24;100.00
54978;BME280;40873;47.522;19.106;2023-05-07T03:38:55;100351.50;;;13.18;100.00
54978;BME280;40873;47.522;19.106;2023-05-07T03:41:22;100346.19;;;13.18;100.00
54978;BME280;40873;47.522;19.106;2023-05-07T03:43:49;100346.19;;;13.18;100.00
54978;BME280;40873;47.522;19.106;2023-05-07T03:46:18;100343.97;;;13.12;100.00
54978;BME280;40873;47.522;19.106;2023-05-07T03:48:45;100344.31;;;13.20;100.00
54978;BME280;40873;47.522;19.106;2023-05-07T03:51:12;100342.69;;;13.17;100.00
54978;BME280;40873;47.522;19.106;2023-05-07T03:53:39;100340.06;;;13.17;100.00
54978;BME280;40873;47.522;19.106;2023-05-07T03:56:06;100344.50;;;13.17;100.00
54978;BME280;40873;47.522;19.106;2023-05-07T03:58:33;100340.69;;;13.21;100.00
54978;BME280;40873;47.522;19.106;2023-05-07T04:01:03;100343.25;;;13.23;100.00
54978;BME280;40873;47.522;19.106;2023-05-07T04:03:30;100348.56;;;13.23;100.00
54978;BME280;40873;47.522;19.106;2023-05-07T04:05:57;100351.22;;;13.23;100.00
54978;BME280;40873;47.522;19.106;2023-05-07T04:08:27;100353.63;;;13.26;100.00
54978;BME280;40873;47.522;19.106;2023-05-07T04:10:55;100354.75;;;13.34;100.00
54978;BME280;40873;47.522;19.106;2023-05-07T04:13:22;100358.50;;;13.32;100.00
54978;BME280;40873;47.522;19.106;2023-05-07T04:15:50;100361.97;;;13.32;100.00
54978;BME280;40873;47.522;19.106;2023-05-07T04:18:20;100360.06;;;13.34;100.00
54978;BME280;40873;47.522;19.106;2023-05-07T04:20:48;100359.34;;;13.32;100.00
54978;BME280;40873;47.522;19.106;2023-05-07T04:23:18;100366.31;;;13.33;100.00
54978;BME280;40873;47.522;19.106;2023-05-07T04:25:48;100369.38;;;13.40;100.00
54978;BME280;40873;47.522;19.106;2023-05-07T04:28:16;100367.47;;;13.42;100.00
54978;BME280;40873;47.522;19.106;2023-05-07T04:30:45;100372.25;;;13.50;100.00
54978;BME280;40873;47.522;19.106;2023-05-07T04:33:14;100375.63;;;13.52;100.00
54978;BME280;40873;47.522;19.106;2023-05-07T04:35:43;100374.03;;;13.49;100.00
54978;BME280;40873;47.522;19.106;2023-05-07T04:38:10;100371.41;;;13.49;100.00
54978;BME280;40873;47.522;19.106;2023-05-07T04:40:42;100373.09;;;13.50;100.00
54978;BME280;40873;47.522;19.106;2023-05-07T04:43:08;100380.47;;;13.58;100.00
54978;BME280;40873;47.522;19.106;2023-05-07T04:45:36;100378.84;;;13.68;100.00
54978;BME280;40873;47.522;19.106;2023-05-07T04:48:03;100373.88;;;13.87;100.00
54978;BME280;40873;47.522;19.106;2023-05-07T04:50:30;100379.34;;;13.97;100.00
54978;BME280;40873;47.522;19.106;2023-05-07T04:52:58;100383.25;;;14.04;100.00
54978;BME280;40873;47.522;19.106;2023-05-07T04:55:25;100376.22;;;14.27;100.00
54978;BME280;40873;47.522;19.106;2023-05-07T04:57:52;100382.91;;;14.44;100.00
54978;BME280;40873;47.522;19.106;2023-05-07T05:00:21;100387.09;;;14.59;100.00
54978;BME280;40873;47.522;19.106;2023-05-07T05:02:47;100383.97;;;14.65;100.00
54978;BME280;40873;47.522;19.106;2023-05-07T05:05:15;100395.94;;;14.71;100.00
54978;BME280;40873;47.522;19.106;2023-05-07T05:07:43;100386.66;;;14.88;100.00
54978;BME280;40873;47.522;19.106;2023-05-07T05:10:11;100385.84;;;15.10;100.00
54978;BME280;40873;47.522;19.106;2023-05-07T05:12:38;100391.13;;;15.21;100.00
54978;BME280;40873;47.522;19.106;2023-05-07T05:15:06;100392.34;;;15.28;100.00
54978;BME280;40873;47.522;19.106;2023-05-07T05:17:36;100394.78;;;15.31;100.00
54978;BME280;40873;47.522;19.106;2023-05-07T05:20:05;100393.41;;;15.36;100.00
54978;BME280;40873;47.522;19.106;2023-05-07T05:22:32;100387.03;;;15.39;100.00
54978;BME280;40873;47.522;19.106;2023-05-07T05:25:00;100394.53;;;15.45;100.00
54978;BME280;40873;47.522;19.106;2023-05-07T05:27:29;100398.81;;;15.57;100.00
54978;BME280;40873;47.522;19.106;2023-05-07T05:29:57;100399.97;;;15.66;100.00
54978;BME280;40873;47.522;19.106;2023-05-07T05:32:26;100400.66;;;15.79;100.00
54978;BME280;40873;47.522;19.106;2023-05-07T05:34:53;100398.09;;;15.89;100.00
54978;BME280;40873;47.522;19.106;2023-05-07T05:37:20;100406.03;;;16.00;100.00
54978;BME280;40873;47.522;19.106;2023-05-07T05:39:47;100393.78;;;16.09;100.00
54978;BME280;40873;47.522;19.106;2023-05-07T05:42:14;100394.91;;;16.06;100.00
54978;BME280;40873;47.522;19.106;2023-05-07T05:44:41;100389.44;;;16.08;100.00
54978;BME280;40873;47.522;19.106;2023-05-07T05:47:08;100379.38;;;16.11;100.00
54978;BME280;40873;47.522;19.106;2023-05-07T05:49:36;100379.34;;;16.23;100.00
54978;BME280;40873;47.522;19.106;2023-05-07T05:52:03;100377.06;;;16.39;100.00
54978;BME280;40873;47.522;19.106;2023-05-07T05:54:33;100378.50;;;16.43;100.00
54978;BME280;40873;47.522;19.106;2023-05-07T05:57:00;100384.59;;;16.55;100.00
54978;BME280;40873;47.522;19.106;2023-05-07T05:59:27;100382.00;;;16.64;100.00
54978;BME280;40873;47.522;19.106;2023-05-07T06:01:54;100377.09;;;16.81;100.00
54978;BME280;40873;47.522;19.106;2023-05-07T06:04:21;100381.88;;;16.87;100.00
54978;BME280;40873;47.522;19.106;2023-05-07T06:06:50;100386.09;;;16.89;100.00
54978;BME280;40873;47.522;19.106;2023-05-07T06:09:20;100394.00;;;16.91;100.00
54978;BME280;40873;47.522;19.106;2023-05-07T06:11:47;100380.84;;;16.99;100.00
54978;BME280;40873;47.522;19.106;2023-05-07T06:14:14;100373.09;;;16.96;100.00
54978;BME280;40873;47.522;19.106;2023-05-07T06:16:41;100374.69;;;17.08;100.00
54978;BME280;40873;47.522;19.106;2023-05-07T06:19:09;100370.13;;;17.20;100.00
54978;BME280;40873;47.522;19.106;2023-05-07T06:21:38;100377.38;;;17.39;100.00
54978;BME280;40873;47.522;19.106;2023-05-07T06:24:06;100380.19;;;17.47;100.00
54978;BME280;40873;47.522;19.106;2023-05-07T06:26:33;100388.06;;;17.58;100.00
54978;BME280;40873;47.522;19.106;2023-05-07T06:29:00;100383.88;;;17.65;100.00
54978;BME280;40873;47.522;19.106;2023-05-07T06:31:30;100393.03;;;17.72;100.00
54978;BME280;40873;47.522;19.106;2023-05-07T06:34:00;100387.59;;;17.84;100.00
54978;BME280;40873;47.522;19.106;2023-05-07T06:36:28;100392.81;;;17.95;100.00
54978;BME280;40873;47.522;19.106;2023-05-07T06:38:56;100394.66;;;18.04;100.00
54978;BME280;40873;47.522;19.106;2023-05-07T06:41:28;100398.88;;;18.16;100.00
54978;BME280;40873;47.522;19.106;2023-05-07T06:43:55;100398.44;;;18.21;100.00
54978;BME280;40873;47.522;19.106;2023-05-07T06:46:22;100396.47;;;18.32;100.00
54978;BME280;40873;47.522;19.106;2023-05-07T06:48:49;100389.03;;;18.36;98.67
54978;BME280;40873;47.522;19.106;2023-05-07T06:51:16;100388.88;;;18.47;98.36
54978;BME280;40873;47.522;19.106;2023-05-07T06:53:44;100383.66;;;18.65;99.73
54978;BME280;40873;47.522;19.106;2023-05-07T06:56:12;100388.84;;;18.76;100.00
54978;BME280;40873;47.522;19.106;2023-05-07T06:58:39;100386.16;;;18.86;94.00
54978;BME280;40873;47.522;19.106;2023-05-07T07:01:06;100389.22;;;19.01;95.20
54978;BME280;40873;47.522;19.106;2023-05-07T07:03:36;100387.59;;;19.17;92.63
54978;BME280;40873;47.522;19.106;2023-05-07T07:06:03;100386.59;;;19.28;88.89
54978;BME280;40873;47.522;19.106;2023-05-07T07:08:30;100390.84;;;19.49;87.45
54978;BME280;40873;47.522;19.106;2023-05-07T07:10:57;100392.75;;;19.66;87.38
54978;BME280;40873;47.522;19.106;2023-05-07T07:13:24;100394.53;;;19.75;87.31
54978;BME280;40873;47.522;19.106;2023-05-07T07:15:57;100392.19;;;19.90;84.84
54978;BME280;40873;47.522;19.106;2023-05-07T07:18:24;100395.06;;;19.79;83.65
54978;BME280;40873;47.522;19.106;2023-05-07T07:20:54;100384.34;;;19.79;87.02
54978;BME280;40873;47.522;19.106;2023-05-07T07:23:21;100397.22;;;19.93;89.33
54978;BME280;40873;47.522;19.106;2023-05-07T07:25:48;100400.69;;;20.03;83.00
54978;BME280;40873;47.522;19.106;2023-05-07T07:28:17;100396.84;;;20.06;82.27
54978;BME280;40873;47.522;19.106;2023-05-07T07:30:44;100405.13;;;20.12;83.44
54978;BME280;40873;47.522;19.106;2023-05-07T07:33:11;100409.56;;;20.21;84.43
54978;BME280;40873;47.522;19.106;2023-05-07T07:35:38;100411.72;;;20.18;82.80
54978;BME280;40873;47.522;19.106;2023-05-07T07:38:05;100408.78;;;20.29;85.49
54978;BME280;40873;47.522;19.106;2023-05-07T07:40:35;100414.38;;;20.36;81.07
54978;BME280;40873;47.522;19.106;2023-05-07T07:43:02;100410.09;;;20.61;79.31
54978;BME280;40873;47.522;19.106;2023-05-07T07:45:31;100410.78;;;20.63;78.12
54978;BME280;40873;47.522;19.106;2023-05-07T07:47:58;100408.38;;;20.77;79.18
54978;BME280;40873;47.522;19.106;2023-05-07T07:50:25;100421.94;;;20.58;75.75
54978;BME280;40873;47.522;19.106;2023-05-07T07:53:09;100416.06;;;20.55;77.22
54978;BME280;40873;47.522;19.106;2023-05-07T07:55:39;100418.19;;;20.69;76.77
54978;BME280;40873;47.522;19.106;2023-05-07T07:58:07;100418.69;;;20.90;75.75
54978;BME280;40873;47.522;19.106;2023-05-07T08:00:33;100423.75;;;20.93;74.90
54978;BME280;40873;47.522;19.106;2023-05-07T08:03:03;100422.88;;;20.93;72.18
54978;BME280;40873;47.522;19.106;2023-05-07T08:05:33;100416.44;;;21.03;73.54
54978;BME280;40873;47.522;19.106;2023-05-07T08:08:00;100424.25;;;20.97;71.60
54978;BME280;40873;47.522;19.106;2023-05-07T08:10:27;100422.75;;;20.94;73.82
54978;BME280;40873;47.522;19.106;2023-05-07T08:12:57;100427.31;;;20.58;73.75
54978;BME280;40873;47.522;19.106;2023-05-07T08:15:24;100415.19;;;20.72;73.21
54978;BME280;40873;47.522;19.106;2023-05-07T08:17:51;100422.69;;;20.86;72.75
54978;BME280;40873;47.522;19.106;2023-05-07T08:20:18;100414.44;;;20.79;71.08
54978;BME280;40873;47.522;19.106;2023-05-07T08:22:45;100426.69;;;20.82;72.64
54978;BME280;40873;47.522;19.106;2023-05-07T08:25:14;100417.25;;;20.78;73.93
54978;BME280;40873;47.522;19.106;2023-05-07T08:27:41;100419.91;;;20.52;74.00
54978;BME280;40873;47.522;19.106;2023-05-07T08:30:08;100415.75;;;20.40;72.93
54978;BME280;40873;47.522;19.106;2023-05-07T08:32:36;100407.25;;;20.26;74.09
54978;BME280;40873;47.522;19.106;2023-05-07T08:35:03;100409.94;;;20.09;69.80
54978;BME280;40873;47.522;19.106;2023-05-07T08:37:30;100405.81;;;20.14;69.57
54978;BME280;40873;47.522;19.106;2023-05-07T08:39:57;100404.97;;;20.32;68.72
54978;BME280;40873;47.522;19.106;2023-05-07T08:42:24;100405.44;;;20.27;70.34
54978;BME280;40873;47.522;19.106;2023-05-07T08:44:56;100412.53;;;20.36;71.75
54978;BME280;40873;47.522;19.106;2023-05-07T08:47:38;100406.13;;;20.47;64.81
54978;BME280;40873;47.522;19.106;2023-05-07T08:50:08;100396.41;;;20.46;66.60
54978;BME280;40873;47.522;19.106;2023-05-07T08:52:40;100407.16;;;20.72;67.12
54978;BME280;40873;47.522;19.106;2023-05-07T08:55:08;100404.31;;;20.99;67.23
54978;BME280;40873;47.522;19.106;2023-05-07T08:57:36;100404.06;;;21.11;66.77
54978;BME280;40873;47.522;19.106;2023-05-07T09:00:08;100400.94;;;21.23;67.35
54978;BME280;40873;47.522;19.106;2023-05-07T09:02:36;100413.78;;;21.38;70.46
54978;BME280;40873;47.522;19.106;2023-05-07T09:05:05;100412.16;;;21.45;65.59
54978;BME280;40873;47.522;19.106;2023-05-07T09:07:32;100406.13;;;21.51;65.64
54978;BME280;40873;47.522;19.106;2023-05-07T09:10:02;100405.97;;;21.52;65.27
54978;BME280;40873;47.522;19.106;2023-05-07T09:12:30;100406.34;;;21.57;64.25
54978;BME280;40873;47.522;19.106;2023-05-07T09:14:58;100403.06;;;21.96;65.37
54978;BME280;40873;47.522;19.106;2023-05-07T09:17:27;100405.19;;;22.27;61.17
54978;BME280;40873;47.522;19.106;2023-05-07T09:19:54;100399.97;;;22.50;61.76
54978;BME280;40873;47.522;19.106;2023-05-07T09:22:22;100398.13;;;22.50;57.18
54978;BME280;40873;47.522;19.106;2023-05-07T09:24:49;100409.22;;;22.63;58.07
54978;BME280;40873;47.522;19.106;2023-05-07T09:27:17;100407.50;;;22.46;56.62
54978;BME280;40873;47.522;19.106;2023-05-07T09:29:44;100406.69;;;22.46;55.25
54978;BME280;40873;47.522;19.106;2023-05-07T09:32:11;100402.50;;;22.43;52.07
54978;BME280;40873;47.522;19.106;2023-05-07T09:34:42;100404.84;;;22.54;53.75
54978;BME280;40873;47.522;19.106;2023-05-07T09:37:09;100401.09;;;23.04;50.03
54978;BME280;40873;47.522;19.106;2023-05-07T09:39:46;100404.25;;;23.24;49.00
54978;BME280;40873;47.522;19.106;2023-05-07T09:42:13;100406.19;;;23.46;47.79
54978;BME280;40873;47.522;19.106;2023-05-07T09:44:43;100399.56;;;23.57;48.00
54978;BME280;40873;47.522;19.106;2023-05-07T09:47:11;100400.97;;;23.84;49.22
54978;BME280;40873;47.522;19.106;2023-05-07T09:49:47;100398.41;;;23.91;46.07
54978;BME280;40873;47.522;19.106;2023-05-07T09:52:15;100393.97;;;23.98;45.48
54978;BME280;40873;47.522;19.106;2023-05-07T09:54:43;100396.81;;;24.04;48.82
54978;BME280;40873;47.522;19.106;2023-05-07T09:57:11;100399.03;;;24.70;47.94
54978;BME280;40873;47.522;19.106;2023-05-07T09:59:39;100395.50;;;24.23;50.25
54978;BME280;40873;47.522;19.106;2023-05-07T10:02:09;100401.41;;;23.57;48.61
54978;BME280;40873;47.522;19.106;2023-05-07T10:04:39;100410.53;;;23.00;52.52
54978;BME280;40873;47.522;19.106;2023-05-07T10:07:08;100406.16;;;22.99;52.77
54978;BME280;40873;47.522;19.106;2023-05-07T10:09:36;100402.13;;;22.70;52.92
54978;BME280;40873;47.522;19.106;2023-05-07T10:12:06;100406.84;;;22.36;52.51
54978;BME280;40873;47.522;19.106;2023-05-07T10:14:33;100414.44;;;22.40;54.11
54978;BME280;40873;47.522;19.106;2023-05-07T10:17:02;100414.44;;;22.32;52.36
54978;BME280;40873;47.522;19.106;2023-05-07T10:19:29;100400.63;;;22.35;54.34
54978;BME280;40873;47.522;19.106;2023-05-07T10:22:03;100414.56;;;22.31;54.51
54978;BME280;40873;47.522;19.106;2023-05-07T10:24:36;100407.63;;;22.04;56.20
54978;BME280;40873;47.522;19.106;2023-05-07T10:27:09;100404.34;;;21.68;55.83
54978;BME280;40873;47.522;19.106;2023-05-07T10:32:30;100399.31;;;21.73;58.09
54978;BME280;40873;47.522;19.106;2023-05-07T10:35:02;100398.03;;;21.85;57.05
54978;BME280;40873;47.522;19.106;2023-05-07T10:37:30;100403.59;;;21.92;57.70
54978;BME280;40873;47.522;19.106;2023-05-07T10:39:57;100412.03;;;22.13;58.19
54978;BME280;40873;47.522;19.106;2023-05-07T10:42:24;100404.66;;;22.31;56.81
54978;BME280;40873;47.522;19.106;2023-05-07T10:44:51;100402.81;;;22.73;55.43
54978;BME280;40873;47.522;19.106;2023-05-07T10:47:19;100400.97;;;22.57;56.86
54978;BME280;40873;47.522;19.106;2023-05-07T10:52:19;100405.34;;;22.50;53.51
54978;BME280;40873;47.522;19.106;2023-05-07T10:54:46;100400.31;;;22.55;54.79
54978;BME280;40873;47.522;19.106;2023-05-07T10:57:33;100391.91;;;22.41;55.43
54978;BME280;40873;47.522;19.106;2023-05-07T11:05:29;100403.69;;;22.32;54.74
54978;BME280;40873;47.522;19.106;2023-05-07T11:08:01;100405.66;;;22.38;56.09
54978;BME280;40873;47.522;19.106;2023-05-07T11:13:18;100401.63;;;22.59;58.11
54978;BME280;40873;47.522;19.106;2023-05-07T11:15:46;100396.94;;;22.61;56.41
54978;BME280;40873;47.522;19.106;2023-05-07T11:18:16;100389.69;;;22.78;58.23
54978;BME280;40873;47.522;19.106;2023-05-07T11:26:06;100388.88;;;23.80;54.36
54978;BME280;40873;47.522;19.106;2023-05-07T11:28:42;100382.28;;;24.14;54.87
54978;BME280;40873;47.522;19.106;2023-05-07T11:31:10;100395.53;;;24.61;52.29
54978;BME280;40873;47.522;19.106;2023-05-07T11:33:39;100394.16;;;24.65;52.61
54978;BME280;40873;47.522;19.106;2023-05-07T11:36:07;100386.91;;;25.18;49.06
54978;BME280;40873;47.522;19.106;2023-05-07T11:38:35;100389.00;;;24.93;48.59
54978;BME280;40873;47.522;19.106;2023-05-07T11:41:03;100376.22;;;24.72;48.47
54978;BME280;40873;47.522;19.106;2023-05-07T11:43:32;100393.06;;;24.89;48.49
54978;BME280;40873;47.522;19.106;2023-05-07T11:46:10;100371.78;;;24.79;47.87
54978;BME280;40873;47.522;19.106;2023-05-07T11:48:40;100375.47;;;24.64;50.66
54978;BME280;40873;47.522;19.106;2023-05-07T11:51:08;100380.13;;;24.70;48.47
54978;BME280;40873;47.522;19.106;2023-05-07T11:53:42;100381.38;;;24.44;49.06
54978;BME280;40873;47.522;19.106;2023-05-07T11:56:11;100370.69;;;24.05;50.43
54978;BME280;40873;47.522;19.106;2023-05-07T11:58:40;100364.44;;;24.36;51.15
54978;BME280;40873;47.522;19.106;2023-05-07T12:01:09;100370.88;;;25.46;47.31
54978;BME280;40873;47.522;19.106;2023-05-07T12:03:37;100357.44;;;25.53;45.11
54978;BME280;40873;47.522;19.106;2023-05-07T12:06:07;100372.53;;;25.03;46.48
54978;BME280;40873;47.522;19.106;2023-05-07T12:08:38;100362.00;;;25.37;43.76
54978;BME280;40873;47.522;19.106;2023-05-07T12:11:35;100369.47;;;26.01;45.31
54978;BME280;40873;47.522;19.106;2023-05-07T12:14:04;100366.66;;;25.43;44.43
54978;BME280;40873;47.522;19.106;2023-05-07T12:16:35;100365.22;;;25.77;45.37
54978;BME280;40873;47.522;19.106;2023-05-07T12:19:02;100367.53;;;25.29;45.31
54978;BME280;40873;47.522;19.106;2023-05-07T12:21:29;100365.72;;;24.77;46.23
54978;BME280;40873;47.522;19.106;2023-05-07T12:23:56;100363.94;;;24.55;46.69
54978;BME280;40873;47.522;19.106;2023-05-07T12:26:23;100369.22;;;25.15;45.66
54978;BME280;40873;47.522;19.106;2023-05-07T12:28:50;100370.50;;;24.90;47.29
54978;BME280;40873;47.522;19.106;2023-05-07T12:31:18;100368.03;;;25.18;45.14
54978;BME280;40873;47.522;19.106;2023-05-07T12:33:45;100363.97;;;25.43;44.50
54978;BME280;40873;47.522;19.106;2023-05-07T12:36:13;100356.97;;;25.49;45.07
54978;BME280;40873;47.522;19.106;2023-05-07T12:38:40;100361.41;;;26.29;43.17
54978;BME280;40873;47.522;19.106;2023-05-07T12:41:09;100365.19;;;27.12;42.06
54978;BME280;40873;47.522;19.106;2023-05-07T12:43:37;100361.03;;;26.88;39.27
54978;BME280;40873;47.522;19.106;2023-05-07T12:46:07;100363.25;;;27.41;39.84
54978;BME280;40873;47.522;19.106;2023-05-07T12:48:43;100359.16;;;27.17;36.95
54978;BME280;40873;47.522;19.106;2023-05-07T12:51:10;100349.06;;;27.45;37.44
54978;BME280;40873;47.522;19.106;2023-05-07T12:53:40;100360.81;;;27.18;38.93
54978;BME280;40873;47.522;19.106;2023-05-07T12:56:09;100363.16;;;27.21;39.92
54978;BME280;40873;47.522;19.106;2023-05-07T12:58:36;100358.91;;;26.84;40.65
54978;BME280;40873;47.522;19.106;2023-05-07T13:01:05;100359.69;;;26.71;39.78